sensor_id;sensor_type;location;lat;lon;timestamp;P1;durP1;ratioP1;P2;durP2;ratioP2
19971;SDS011;10147;16.402;102.848;2023-02-11T00:01:24;91.00;;;76.68;;
19971;SDS011;10147;16.402;102.848;2023-02-11T00:03:55;93.68;;;81.07;;
19971;SDS011;10147;16.402;102.848;2023-02-11T00:06:27;105.88;;;87.07;;
19971;SDS011;10147;16.402;102.848;2023-02-11T00:08:58;86.85;;;72.93;;
19971;SDS011;10147;16.402;102.848;2023-02-11T00:11:28;89.60;;;73.55;;
19971;SDS011;10147;16.402;102.848;2023-02-11T00:14:00;100.25;;;77.35;;
19971;SDS011;10147;16.402;102.848;2023-02-11T00:16:31;93.75;;;73.03;;
19971;SDS011;10147;16.402;102.848;2023-02-11T00:19:02;90.68;;;71.93;;
19971;SDS011;10147;16.402;102.848;2023-02-11T00:21:34;88.07;;;70.75;;
19971;SDS011;10147;16.402;102.848;2023-02-11T00:24:04;89.28;;;73.95;;
19971;SDS011;10147;16.402;102.848;2023-02-11T00:26:35;90.88;;;74.55;;
19971;SDS011;10147;16.402;102.848;2023-02-11T00:29:05;102.97;;;83.20;;
19971;SDS011;10147;16.402;102.848;2023-02-11T00:31:36;97.43;;;79.00;;
19971;SDS011;10147;16.402;102.848;2023-02-11T00:34:06;91.93;;;73.70;;
19971;SDS011;10147;16.402;102.848;2023-02-11T00:36:37;97.35;;;79.15;;
19971;SDS011;10147;16.402;102.848;2023-02-11T00:39:07;92.95;;;75.75;;
19971;SDS011;10147;16.402;102.848;2023-02-11T00:41:38;92.10;;;74.95;;
19971;SDS011;10147;16.402;102.848;2023-02-11T00:44:08;87.35;;;72.53;;
19971;SDS011;10147;16.402;102.848;2023-02-11T00:46:39;101.00;;;85.30;;
19971;SDS011;10147;16.402;102.848;2023-02-11T00:49:10;127.82;;;97.00;;
19971;SDS011;10147;16.402;102.848;2023-02-11T00:51:40;155.80;;;118.60;;
19971;SDS011;10147;16.402;102.848;2023-02-11T00:54:11;113.50;;;87.43;;
19971;SDS011;10147;16.402;102.848;2023-02-11T00:56:42;96.03;;;75.78;;
19971;SDS011;10147;16.402;102.848;2023-02-11T00:59:12;87.80;;;72.60;;
19971;SDS011;10147;16.402;102.848;2023-02-11T01:01:44;80.80;;;68.75;;
19971;SDS011;10147;16.402;102.848;2023-02-11T01:04:15;81.00;;;68.15;;
19971;SDS011;10147;16.402;102.848;2023-02-11T01:06:45;78.20;;;66.93;;
19971;SDS011;10147;16.402;102.848;2023-02-11T01:09:16;81.13;;;69.15;;
19971;SDS011;10147;16.402;102.848;2023-02-11T01:11:47;83.88;;;72.05;;
19971;SDS011;10147;16.402;102.848;2023-02-11T01:14:18;87.55;;;67.93;;
19971;SDS011;10147;16.402;102.848;2023-02-11T01:16:50;84.68;;;66.75;;
19971;SDS011;10147;16.402;102.848;2023-02-11T01:19:20;73.40;;;62.55;;
19971;SDS011;10147;16.402;102.848;2023-02-11T01:21:51;80.03;;;63.88;;
19971;SDS011;10147;16.402;102.848;2023-02-11T01:24:21;83.13;;;65.07;;
19971;SDS011;10147;16.402;102.848;2023-02-11T01:26:51;77.97;;;65.63;;
19971;SDS011;10147;16.402;102.848;2023-02-11T01:29:23;83.97;;;63.35;;
19971;SDS011;10147;16.402;102.848;2023-02-11T01:31:53;81.70;;;64.03;;
19971;SDS011;10147;16.402;102.848;2023-02-11T01:34:25;85.47;;;67.03;;
19971;SDS011;10147;16.402;102.848;2023-02-11T01:36:57;82.00;;;64.10;;
19971;SDS011;10147;16.402;102.848;2023-02-11T01:39:28;81.50;;;62.55;;
19971;SDS011;10147;16.402;102.848;2023-02-11T01:42:01;92.75;;;71.47;;
19971;SDS011;10147;16.402;102.848;2023-02-11T01:44:34;83.65;;;65.50;;
19971;SDS011;10147;16.402;102.848;2023-02-11T01:47:05;73.68;;;62.33;;
19971;SDS011;10147;16.402;102.848;2023-02-11T01:49:37;81.60;;;64.68;;
19971;SDS011;10147;16.402;102.848;2023-02-11T01:52:09;86.45;;;69.15;;
19971;SDS011;10147;16.402;102.848;2023-02-11T01:54:43;89.03;;;73.63;;
19971;SDS011;10147;16.402;102.848;2023-02-11T01:57:34;87.22;;;69.80;;
19971;SDS011;10147;16.402;102.848;2023-02-11T02:00:13;83.13;;;71.78;;
19971;SDS011;10147;16.402;102.848;2023-02-11T02:02:49;81.65;;;65.57;;
19971;SDS011;10147;16.402;102.848;2023-02-11T02:05:27;73.35;;;59.97;;
19971;SDS011;10147;16.402;102.848;2023-02-11T02:10:51;74.70;;;60.05;;
19971;SDS011;10147;16.402;102.848;2023-02-11T02:13:24;79.00;;;63.85;;
19971;SDS011;10147;16.402;102.848;2023-02-11T02:15:58;78.93;;;62.60;;
19971;SDS011;10147;16.402;102.848;2023-02-11T02:21:28;76.68;;;63.58;;
19971;SDS011;10147;16.402;102.848;2023-02-11T02:32:32;82.60;;;63.03;;
19971;SDS011;10147;16.402;102.848;2023-02-11T02:40:45;77.13;;;60.45;;
19971;SDS011;10147;16.402;102.848;2023-02-11T02:43:17;79.45;;;62.38;;
19971;SDS011;10147;16.402;102.848;2023-02-11T02:45:48;79.63;;;64.13;;
19971;SDS011;10147;16.402;102.848;2023-02-11T02:48:26;74.63;;;60.92;;
19971;SDS011;10147;16.402;102.848;2023-02-11T02:53:54;72.45;;;57.78;;
19971;SDS011;10147;16.402;102.848;2023-02-11T02:56:38;61.40;;;51.10;;
19971;SDS011;10147;16.402;102.848;2023-02-11T03:10:31;60.85;;;48.58;;
19971;SDS011;10147;16.402;102.848;2023-02-11T03:13:04;62.10;;;48.33;;
19971;SDS011;10147;16.402;102.848;2023-02-11T03:15:40;55.80;;;47.92;;
19971;SDS011;10147;16.402;102.848;2023-02-11T03:18:12;59.78;;;50.00;;
19971;SDS011;10147;16.402;102.848;2023-02-11T03:20:44;61.85;;;49.90;;
19971;SDS011;10147;16.402;102.848;2023-02-11T03:23:18;60.50;;;48.30;;
19971;SDS011;10147;16.402;102.848;2023-02-11T03:26:04;58.63;;;45.80;;
19971;SDS011;10147;16.402;102.848;2023-02-11T03:28:48;61.58;;;48.45;;
19971;SDS011;10147;16.402;102.848;2023-02-11T03:37:09;56.40;;;44.72;;
19971;SDS011;10147;16.402;102.848;2023-02-11T03:45:22;55.08;;;43.83;;
19971;SDS011;10147;16.402;102.848;2023-02-11T03:47:54;49.83;;;41.97;;
19971;SDS011;10147;16.402;102.848;2023-02-11T03:50:26;49.80;;;44.17;;
19971;SDS011;10147;16.402;102.848;2023-02-11T03:52:59;51.60;;;41.63;;
19971;SDS011;10147;16.402;102.848;2023-02-11T03:55:32;45.58;;;40.72;;
19971;SDS011;10147;16.402;102.848;2023-02-11T03:58:04;48.92;;;37.22;;
19971;SDS011;10147;16.402;102.848;2023-02-11T04:00:35;51.28;;;39.00;;
19971;SDS011;10147;16.402;102.848;2023-02-11T04:03:07;46.53;;;39.03;;
19971;SDS011;10147;16.402;102.848;2023-02-11T04:05:38;49.88;;;38.85;;
19971;SDS011;10147;16.402;102.848;2023-02-11T04:08:09;50.65;;;37.55;;
19971;SDS011;10147;16.402;102.848;2023-02-11T04:10:39;42.80;;;36.92;;
19971;SDS011;10147;16.402;102.848;2023-02-11T04:13:12;42.13;;;37.25;;
19971;SDS011;10147;16.402;102.848;2023-02-11T04:15:43;40.75;;;36.35;;
19971;SDS011;10147;16.402;102.848;2023-02-11T04:18:15;40.08;;;32.92;;
19971;SDS011;10147;16.402;102.848;2023-02-11T04:20:46;40.03;;;32.03;;
19971;SDS011;10147;16.402;102.848;2023-02-11T04:23:16;42.70;;;36.70;;
19971;SDS011;10147;16.402;102.848;2023-02-11T04:25:48;43.42;;;36.25;;
19971;SDS011;10147;16.402;102.848;2023-02-11T04:28:18;38.10;;;32.67;;
19971;SDS011;10147;16.402;102.848;2023-02-11T04:30:50;36.65;;;32.55;;
19971;SDS011;10147;16.402;102.848;2023-02-11T04:33:20;40.80;;;33.85;;
19971;SDS011;10147;16.402;102.848;2023-02-11T04:35:51;36.00;;;31.05;;
19971;SDS011;10147;16.402;102.848;2023-02-11T04:38:21;40.88;;;34.85;;
19971;SDS011;10147;16.402;102.848;2023-02-11T04:40:56;39.22;;;32.90;;
19971;SDS011;10147;16.402;102.848;2023-02-11T04:43:28;39.65;;;34.72;;
19971;SDS011;10147;16.402;102.848;2023-02-11T04:45:59;38.65;;;34.53;;
19971;SDS011;10147;16.402;102.848;2023-02-11T04:48:30;37.53;;;33.60;;
19971;SDS011;10147;16.402;102.848;2023-02-11T04:51:00;72.40;;;66.07;;
19971;SDS011;10147;16.402;102.848;2023-02-11T04:53:30;37.70;;;33.60;;
19971;SDS011;10147;16.402;102.848;2023-02-11T04:56:00;39.35;;;33.08;;
19971;SDS011;10147;16.402;102.848;2023-02-11T04:58:30;38.00;;;33.90;;
19971;SDS011;10147;16.402;102.848;2023-02-11T05:01:07;38.03;;;33.05;;
19971;SDS011;10147;16.402;102.848;2023-02-11T05:03:38;42.10;;;37.63;;
19971;SDS011;10147;16.402;102.848;2023-02-11T05:06:09;36.95;;;32.97;;
19971;SDS011;10147;16.402;102.848;2023-02-11T05:08:40;35.75;;;31.90;;
19971;SDS011;10147;16.402;102.848;2023-02-11T05:11:14;43.33;;;39.13;;
19971;SDS011;10147;16.402;102.848;2023-02-11T05:13:46;42.83;;;38.22;;
19971;SDS011;10147;16.402;102.848;2023-02-11T05:16:16;84.65;;;75.65;;
19971;SDS011;10147;16.402;102.848;2023-02-11T05:18:47;36.85;;;32.35;;
19971;SDS011;10147;16.402;102.848;2023-02-11T05:21:19;33.17;;;29.73;;
19971;SDS011;10147;16.402;102.848;2023-02-11T05:23:49;34.35;;;30.63;;
19971;SDS011;10147;16.402;102.848;2023-02-11T05:26:19;33.10;;;29.50;;
19971;SDS011;10147;16.402;102.848;2023-02-11T05:28:50;32.70;;;29.17;;
19971;SDS011;10147;16.402;102.848;2023-02-11T05:31:20;32.63;;;28.77;;
19971;SDS011;10147;16.402;102.848;2023-02-11T05:33:50;31.55;;;28.17;;
19971;SDS011;10147;16.402;102.848;2023-02-11T05:36:21;32.42;;;28.95;;
19971;SDS011;10147;16.402;102.848;2023-02-11T05:38:51;37.70;;;33.67;;
19971;SDS011;10147;16.402;102.848;2023-02-11T05:41:21;34.25;;;29.77;;
19971;SDS011;10147;16.402;102.848;2023-02-11T05:43:51;32.17;;;28.70;;
19971;SDS011;10147;16.402;102.848;2023-02-11T05:46:22;37.85;;;28.52;;
19971;SDS011;10147;16.402;102.848;2023-02-11T05:48:53;30.52;;;27.33;;
19971;SDS011;10147;16.402;102.848;2023-02-11T05:51:24;31.02;;;27.75;;
19971;SDS011;10147;16.402;102.848;2023-02-11T05:53:55;31.42;;;28.23;;
19971;SDS011;10147;16.402;102.848;2023-02-11T05:56:26;31.58;;;26.88;;
19971;SDS011;10147;16.402;102.848;2023-02-11T05:58:57;32.60;;;28.58;;
19971;SDS011;10147;16.402;102.848;2023-02-11T06:01:28;28.40;;;25.58;;
19971;SDS011;10147;16.402;102.848;2023-02-11T06:03:58;33.67;;;27.67;;
19971;SDS011;10147;16.402;102.848;2023-02-11T06:06:29;33.58;;;28.90;;
19971;SDS011;10147;16.402;102.848;2023-02-11T06:08:59;33.05;;;29.30;;
19971;SDS011;10147;16.402;102.848;2023-02-11T06:11:29;33.50;;;29.98;;
19971;SDS011;10147;16.402;102.848;2023-02-11T06:14:00;30.63;;;27.42;;
19971;SDS011;10147;16.402;102.848;2023-02-11T06:16:30;31.20;;;27.88;;
19971;SDS011;10147;16.402;102.848;2023-02-11T06:19:01;31.02;;;27.52;;
19971;SDS011;10147;16.402;102.848;2023-02-11T06:21:32;30.27;;;27.08;;
19971;SDS011;10147;16.402;102.848;2023-02-11T06:24:11;29.25;;;26.05;;
19971;SDS011;10147;16.402;102.848;2023-02-11T06:26:45;29.08;;;25.95;;
19971;SDS011;10147;16.402;102.848;2023-02-11T06:29:15;28.45;;;25.42;;
19971;SDS011;10147;16.402;102.848;2023-02-11T06:31:46;28.02;;;25.02;;
19971;SDS011;10147;16.402;102.848;2023-02-11T06:34:16;31.63;;;26.90;;
19971;SDS011;10147;16.402;102.848;2023-02-11T06:36:46;27.80;;;24.85;;
19971;SDS011;10147;16.402;102.848;2023-02-11T06:39:17;28.25;;;24.92;;
19971;SDS011;10147;16.402;102.848;2023-02-11T06:41:47;24.25;;;21.85;;
19971;SDS011;10147;16.402;102.848;2023-02-11T06:44:17;25.42;;;22.70;;
19971;SDS011;10147;16.402;102.848;2023-02-11T06:46:48;27.38;;;24.40;;
19971;SDS011;10147;16.402;102.848;2023-02-11T06:49:18;25.73;;;23.15;;
19971;SDS011;10147;16.402;102.848;2023-02-11T06:51:49;25.48;;;22.73;;
19971;SDS011;10147;16.402;102.848;2023-02-11T06:54:20;22.30;;;19.98;;
19971;SDS011;10147;16.402;102.848;2023-02-11T06:56:50;25.70;;;20.90;;
19971;SDS011;10147;16.402;102.848;2023-02-11T06:59:20;23.45;;;21.08;;
19971;SDS011;10147;16.402;102.848;2023-02-11T07:01:51;24.48;;;22.00;;
19971;SDS011;10147;16.402;102.848;2023-02-11T07:04:21;23.95;;;21.48;;
19971;SDS011;10147;16.402;102.848;2023-02-11T07:06:51;25.92;;;22.33;;
19971;SDS011;10147;16.402;102.848;2023-02-11T07:09:21;25.42;;;22.25;;
19971;SDS011;10147;16.402;102.848;2023-02-11T07:11:53;25.33;;;22.15;;
19971;SDS011;10147;16.402;102.848;2023-02-11T07:14:23;26.25;;;21.92;;
19971;SDS011;10147;16.402;102.848;2023-02-11T07:16:55;29.52;;;21.83;;
19971;SDS011;10147;16.402;102.848;2023-02-11T07:19:26;26.90;;;23.98;;
19971;SDS011;10147;16.402;102.848;2023-02-11T07:21:56;26.52;;;22.25;;
19971;SDS011;10147;16.402;102.848;2023-02-11T07:24:27;24.38;;;21.98;;
19971;SDS011;10147;16.402;102.848;2023-02-11T07:26:57;23.20;;;20.80;;
19971;SDS011;10147;16.402;102.848;2023-02-11T07:29:27;23.58;;;20.60;;
19971;SDS011;10147;16.402;102.848;2023-02-11T07:31:57;23.88;;;20.55;;
19971;SDS011;10147;16.402;102.848;2023-02-11T07:34:28;23.13;;;20.70;;
19971;SDS011;10147;16.402;102.848;2023-02-11T07:36:58;27.20;;;24.52;;
19971;SDS011;10147;16.402;102.848;2023-02-11T07:39:29;23.40;;;20.90;;
19971;SDS011;10147;16.402;102.848;2023-02-11T07:41:59;27.33;;;19.77;;
19971;SDS011;10147;16.402;102.848;2023-02-11T07:44:30;22.83;;;20.38;;
19971;SDS011;10147;16.402;102.848;2023-02-11T07:47:01;21.52;;;19.30;;
19971;SDS011;10147;16.402;102.848;2023-02-11T07:49:32;24.77;;;19.80;;
19971;SDS011;10147;16.402;102.848;2023-02-11T07:52:02;24.00;;;20.58;;
19971;SDS011;10147;16.402;102.848;2023-02-11T07:54:32;24.77;;;21.52;;
19971;SDS011;10147;16.402;102.848;2023-02-11T07:57:04;23.00;;;19.83;;
19971;SDS011;10147;16.402;102.848;2023-02-11T07:59:34;22.10;;;19.52;;
19971;SDS011;10147;16.402;102.848;2023-02-11T08:02:04;23.23;;;20.52;;
19971;SDS011;10147;16.402;102.848;2023-02-11T08:04:35;22.98;;;19.27;;
19971;SDS011;10147;16.402;102.848;2023-02-11T08:07:06;23.33;;;20.42;;
19971;SDS011;10147;16.402;102.848;2023-02-11T08:09:36;26.23;;;20.75;;
19971;SDS011;10147;16.402;102.848;2023-02-11T08:12:07;22.92;;;20.45;;
19971;SDS011;10147;16.402;102.848;2023-02-11T08:14:37;22.92;;;19.20;;
19971;SDS011;10147;16.402;102.848;2023-02-11T08:17:08;26.55;;;20.02;;
19971;SDS011;10147;16.402;102.848;2023-02-11T08:19:39;20.95;;;18.85;;
19971;SDS011;10147;16.402;102.848;2023-02-11T08:22:09;22.30;;;18.70;;
19971;SDS011;10147;16.402;102.848;2023-02-11T08:24:40;23.50;;;20.52;;
19971;SDS011;10147;16.402;102.848;2023-02-11T08:27:10;20.17;;;18.27;;
19971;SDS011;10147;16.402;102.848;2023-02-11T08:29:41;20.88;;;18.77;;
19971;SDS011;10147;16.402;102.848;2023-02-11T08:32:12;21.33;;;19.23;;
19971;SDS011;10147;16.402;102.848;2023-02-11T08:34:42;23.58;;;20.02;;
19971;SDS011;10147;16.402;102.848;2023-02-11T08:37:13;22.40;;;19.17;;
19971;SDS011;10147;16.402;102.848;2023-02-11T08:39:43;21.83;;;19.52;;
19971;SDS011;10147;16.402;102.848;2023-02-11T08:42:15;21.73;;;19.52;;
19971;SDS011;10147;16.402;102.848;2023-02-11T08:44:45;24.60;;;19.80;;
19971;SDS011;10147;16.402;102.848;2023-02-11T08:47:16;21.20;;;19.00;;
19971;SDS011;10147;16.402;102.848;2023-02-11T08:49:46;24.55;;;22.13;;
19971;SDS011;10147;16.402;102.848;2023-02-11T08:52:18;21.92;;;19.58;;
19971;SDS011;10147;16.402;102.848;2023-02-11T08:54:48;21.83;;;18.65;;
19971;SDS011;10147;16.402;102.848;2023-02-11T08:57:18;21.13;;;19.02;;
19971;SDS011;10147;16.402;102.848;2023-02-11T08:59:48;23.08;;;18.88;;
19971;SDS011;10147;16.402;102.848;2023-02-11T09:02:19;23.15;;;18.80;;
19971;SDS011;10147;16.402;102.848;2023-02-11T09:04:50;21.00;;;18.73;;
19971;SDS011;10147;16.402;102.848;2023-02-11T09:07:20;21.48;;;18.95;;
19971;SDS011;10147;16.402;102.848;2023-02-11T09:09:51;22.05;;;19.63;;
19971;SDS011;10147;16.402;102.848;2023-02-11T09:12:21;21.48;;;18.73;;
19971;SDS011;10147;16.402;102.848;2023-02-11T09:14:52;19.67;;;17.60;;
19971;SDS011;10147;16.402;102.848;2023-02-11T09:17:22;19.63;;;17.63;;
19971;SDS011;10147;16.402;102.848;2023-02-11T09:19:52;23.88;;;17.65;;
19971;SDS011;10147;16.402;102.848;2023-02-11T09:22:22;23.30;;;18.33;;
19971;SDS011;10147;16.402;102.848;2023-02-11T09:24:53;27.10;;;17.83;;
19971;SDS011;10147;16.402;102.848;2023-02-11T09:27:23;20.92;;;18.70;;
19971;SDS011;10147;16.402;102.848;2023-02-11T09:29:53;22.55;;;17.70;;
19971;SDS011;10147;16.402;102.848;2023-02-11T09:32:23;20.88;;;17.08;;
19971;SDS011;10147;16.402;102.848;2023-02-11T09:34:53;24.75;;;17.88;;
19971;SDS011;10147;16.402;102.848;2023-02-11T09:37:23;22.92;;;18.00;;
19971;SDS011;10147;16.402;102.848;2023-02-11T09:39:54;24.67;;;19.77;;
19971;SDS011;10147;16.402;102.848;2023-02-11T09:45:23;20.88;;;18.00;;
19971;SDS011;10147;16.402;102.848;2023-02-11T09:50:49;20.77;;;18.55;;
19971;SDS011;10147;16.402;102.848;2023-02-11T09:53:25;25.48;;;18.48;;
19971;SDS011;10147;16.402;102.848;2023-02-11T09:55:57;22.92;;;18.77;;
19971;SDS011;10147;16.402;102.848;2023-02-11T09:58:32;22.38;;;19.67;;
19971;SDS011;10147;16.402;102.848;2023-02-11T10:06:50;29.42;;;21.35;;
19971;SDS011;10147;16.402;102.848;2023-02-11T10:12:24;20.08;;;17.92;;
19971;SDS011;10147;16.402;102.848;2023-02-11T10:20:38;23.35;;;17.92;;
19971;SDS011;10147;16.402;102.848;2023-02-11T10:23:14;25.42;;;21.00;;
19971;SDS011;10147;16.402;102.848;2023-02-11T10:25:45;29.20;;;19.83;;
19971;SDS011;10147;16.402;102.848;2023-02-11T10:28:23;26.50;;;21.35;;
19971;SDS011;10147;16.402;102.848;2023-02-11T10:31:00;32.72;;;26.00;;
19971;SDS011;10147;16.402;102.848;2023-02-11T10:33:35;29.00;;;23.02;;
19971;SDS011;10147;16.402;102.848;2023-02-11T10:36:10;31.17;;;24.67;;
19971;SDS011;10147;16.402;102.848;2023-02-11T10:38:41;32.40;;;25.02;;
19971;SDS011;10147;16.402;102.848;2023-02-11T10:41:14;28.20;;;24.42;;
19971;SDS011;10147;16.402;102.848;2023-02-11T10:43:45;27.75;;;22.33;;
19971;SDS011;10147;16.402;102.848;2023-02-11T10:46:17;24.75;;;22.25;;
19971;SDS011;10147;16.402;102.848;2023-02-11T10:48:50;25.65;;;20.67;;
19971;SDS011;10147;16.402;102.848;2023-02-11T10:51:25;26.40;;;20.20;;
19971;SDS011;10147;16.402;102.848;2023-02-11T10:54:09;30.58;;;21.48;;
19971;SDS011;10147;16.402;102.848;2023-02-11T10:56:44;27.42;;;20.90;;
19971;SDS011;10147;16.402;102.848;2023-02-11T10:59:20;28.15;;;21.58;;
19971;SDS011;10147;16.402;102.848;2023-02-11T11:01:56;30.10;;;23.13;;
19971;SDS011;10147;16.402;102.848;2023-02-11T11:04:33;31.05;;;24.75;;
19971;SDS011;10147;16.402;102.848;2023-02-11T11:09:56;47.95;;;32.75;;
19971;SDS011;10147;16.402;102.848;2023-02-11T11:15:19;36.75;;;24.75;;
19971;SDS011;10147;16.402;102.848;2023-02-11T11:17:50;32.90;;;24.45;;
19971;SDS011;10147;16.402;102.848;2023-02-11T11:20:37;36.83;;;23.35;;
19971;SDS011;10147;16.402;102.848;2023-02-11T11:23:19;40.70;;;24.73;;
19971;SDS011;10147;16.402;102.848;2023-02-11T11:26:02;39.00;;;25.45;;
19971;SDS011;10147;16.402;102.848;2023-02-11T11:31:25;34.83;;;23.83;;
19971;SDS011;10147;16.402;102.848;2023-02-11T11:33:57;42.28;;;25.67;;
19971;SDS011;10147;16.402;102.848;2023-02-11T11:36:36;39.35;;;26.52;;
19971;SDS011;10147;16.402;102.848;2023-02-11T11:39:16;47.65;;;25.10;;
19971;SDS011;10147;16.402;102.848;2023-02-11T11:41:48;34.17;;;25.05;;
19971;SDS011;10147;16.402;102.848;2023-02-11T11:49:54;39.13;;;25.55;;
19971;SDS011;10147;16.402;102.848;2023-02-11T11:55:21;40.10;;;26.40;;
19971;SDS011;10147;16.402;102.848;2023-02-11T11:57:53;39.55;;;24.38;;
19971;SDS011;10147;16.402;102.848;2023-02-11T12:08:57;40.20;;;26.42;;
19971;SDS011;10147;16.402;102.848;2023-02-11T12:17:18;44.38;;;30.25;;
19971;SDS011;10147;16.402;102.848;2023-02-11T12:31:22;43.78;;;33.13;;
19971;SDS011;10147;16.402;102.848;2023-02-11T12:34:01;46.70;;;34.85;;
19971;SDS011;10147;16.402;102.848;2023-02-11T12:42:27;64.05;;;39.85;;
19971;SDS011;10147;16.402;102.848;2023-02-11T12:51:10;61.20;;;41.15;;
19971;SDS011;10147;16.402;102.848;2023-02-11T12:56:40;60.55;;;42.88;;
19971;SDS011;10147;16.402;102.848;2023-02-11T12:59:16;62.88;;;43.08;;
19971;SDS011;10147;16.402;102.848;2023-02-11T13:01:49;61.35;;;41.72;;
19971;SDS011;10147;16.402;102.848;2023-02-11T13:04:26;68.63;;;44.42;;
19971;SDS011;10147;16.402;102.848;2023-02-11T13:06:59;62.80;;;41.55;;
19971;SDS011;10147;16.402;102.848;2023-02-11T13:12:23;69.82;;;47.05;;
19971;SDS011;10147;16.402;102.848;2023-02-11T13:15:14;70.85;;;50.17;;
19971;SDS011;10147;16.402;102.848;2023-02-11T13:23:37;67.38;;;46.33;;
19971;SDS011;10147;16.402;102.848;2023-02-11T13:26:28;59.88;;;43.10;;
19971;SDS011;10147;16.402;102.848;2023-02-11T13:31:52;73.47;;;44.92;;
19971;SDS011;10147;16.402;102.848;2023-02-11T13:42:54;107.82;;;65.78;;
19971;SDS011;10147;16.402;102.848;2023-02-11T13:48:22;91.78;;;56.30;;
19971;SDS011;10147;16.402;102.848;2023-02-11T13:50:55;98.22;;;55.75;;
19971;SDS011;10147;16.402;102.848;2023-02-11T13:53:25;79.45;;;51.35;;
19971;SDS011;10147;16.402;102.848;2023-02-11T13:56:08;89.63;;;50.88;;
19971;SDS011;10147;16.402;102.848;2023-02-11T13:58:48;84.38;;;49.72;;
19971;SDS011;10147;16.402;102.848;2023-02-11T14:04:20;73.03;;;45.65;;
19971;SDS011;10147;16.402;102.848;2023-02-11T14:07:26;66.97;;;46.15;;
19971;SDS011;10147;16.402;102.848;2023-02-11T14:16:04;75.15;;;45.97;;
19971;SDS011;10147;16.402;102.848;2023-02-11T14:18:56;59.83;;;42.75;;
19971;SDS011;10147;16.402;102.848;2023-02-11T14:21:33;61.28;;;42.85;;
19971;SDS011;10147;16.402;102.848;2023-02-11T14:29:52;67.45;;;42.28;;
19971;SDS011;10147;16.402;102.848;2023-02-11T14:32:32;67.40;;;53.20;;
19971;SDS011;10147;16.402;102.848;2023-02-11T14:38:02;70.20;;;45.03;;
19971;SDS011;10147;16.402;102.848;2023-02-11T14:43:26;60.10;;;42.63;;
19971;SDS011;10147;16.402;102.848;2023-02-11T14:45:57;61.17;;;41.50;;
19971;SDS011;10147;16.402;102.848;2023-02-11T14:48:30;61.25;;;41.08;;
19971;SDS011;10147;16.402;102.848;2023-02-11T14:51:07;56.30;;;40.92;;
19971;SDS011;10147;16.402;102.848;2023-02-11T14:53:43;57.17;;;42.55;;
19971;SDS011;10147;16.402;102.848;2023-02-11T14:59:18;59.83;;;44.08;;
19971;SDS011;10147;16.402;102.848;2023-02-11T15:01:49;55.85;;;39.72;;
19971;SDS011;10147;16.402;102.848;2023-02-11T15:04:30;58.85;;;39.38;;
19971;SDS011;10147;16.402;102.848;2023-02-11T15:07:06;60.10;;;39.15;;
19971;SDS011;10147;16.402;102.848;2023-02-11T15:09:40;53.63;;;39.35;;
19971;SDS011;10147;16.402;102.848;2023-02-11T15:12:14;52.17;;;38.08;;
19971;SDS011;10147;16.402;102.848;2023-02-11T15:14:47;52.03;;;38.13;;
19971;SDS011;10147;16.402;102.848;2023-02-11T15:17:25;57.30;;;38.22;;
19971;SDS011;10147;16.402;102.848;2023-02-11T15:19:57;48.78;;;37.17;;
19971;SDS011;10147;16.402;102.848;2023-02-11T15:22:29;50.75;;;36.92;;
19971;SDS011;10147;16.402;102.848;2023-02-11T15:25:11;57.03;;;40.05;;
19971;SDS011;10147;16.402;102.848;2023-02-11T15:27:46;49.42;;;38.25;;
19971;SDS011;10147;16.402;102.848;2023-02-11T15:30:25;55.97;;;39.60;;
19971;SDS011;10147;16.402;102.848;2023-02-11T15:33:00;56.95;;;39.17;;
19971;SDS011;10147;16.402;102.848;2023-02-11T15:35:37;69.63;;;42.70;;
19971;SDS011;10147;16.402;102.848;2023-02-11T15:38:09;78.15;;;47.33;;
19971;SDS011;10147;16.402;102.848;2023-02-11T15:40:49;63.42;;;44.65;;
19971;SDS011;10147;16.402;102.848;2023-02-11T15:43:20;66.13;;;44.72;;
19971;SDS011;10147;16.402;102.848;2023-02-11T15:45:56;68.35;;;44.60;;
19971;SDS011;10147;16.402;102.848;2023-02-11T15:48:35;63.65;;;42.83;;
19971;SDS011;10147;16.402;102.848;2023-02-11T15:53:58;62.63;;;42.13;;
19971;SDS011;10147;16.402;102.848;2023-02-11T15:56:35;57.72;;;41.95;;
19971;SDS011;10147;16.402;102.848;2023-02-11T15:59:17;58.85;;;48.25;;
19971;SDS011;10147;16.402;102.848;2023-02-11T16:01:50;50.45;;;41.95;;
19971;SDS011;10147;16.402;102.848;2023-02-11T16:04:21;48.15;;;38.42;;
19971;SDS011;10147;16.402;102.848;2023-02-11T16:06:54;47.95;;;37.10;;
19971;SDS011;10147;16.402;102.848;2023-02-11T16:09:29;43.47;;;35.67;;
19971;SDS011;10147;16.402;102.848;2023-02-11T16:12:01;42.47;;;33.72;;
19971;SDS011;10147;16.402;102.848;2023-02-11T16:14:35;44.63;;;34.30;;
19971;SDS011;10147;16.402;102.848;2023-02-11T16:17:09;45.10;;;35.00;;
19971;SDS011;10147;16.402;102.848;2023-02-11T16:19:43;58.22;;;42.97;;
19971;SDS011;10147;16.402;102.848;2023-02-11T16:22:19;57.33;;;42.75;;
19971;SDS011;10147;16.402;102.848;2023-02-11T16:24:51;57.25;;;43.15;;
19971;SDS011;10147;16.402;102.848;2023-02-11T16:27:41;171.80;;;142.45;;
19971;SDS011;10147;16.402;102.848;2023-02-11T16:33:02;54.80;;;40.67;;
19971;SDS011;10147;16.402;102.848;2023-02-11T16:35:33;52.20;;;39.83;;
19971;SDS011;10147;16.402;102.848;2023-02-11T16:38:05;57.15;;;39.55;;
19971;SDS011;10147;16.402;102.848;2023-02-11T16:40:35;55.97;;;40.65;;
19971;SDS011;10147;16.402;102.848;2023-02-11T16:43:07;57.20;;;38.25;;
19971;SDS011;10147;16.402;102.848;2023-02-11T16:45:37;56.05;;;40.75;;
19971;SDS011;10147;16.402;102.848;2023-02-11T16:48:08;51.53;;;40.15;;
19971;SDS011;10147;16.402;102.848;2023-02-11T16:50:43;56.90;;;41.85;;
19971;SDS011;10147;16.402;102.848;2023-02-11T16:53:22;52.70;;;39.90;;
19971;SDS011;10147;16.402;102.848;2023-02-11T16:55:53;61.15;;;42.95;;
19971;SDS011;10147;16.402;102.848;2023-02-11T16:58:23;61.53;;;40.80;;
19971;SDS011;10147;16.402;102.848;2023-02-11T17:00:54;59.83;;;42.95;;
19971;SDS011;10147;16.402;102.848;2023-02-11T17:03:25;55.30;;;40.17;;
19971;SDS011;10147;16.402;102.848;2023-02-11T17:05:57;49.58;;;40.53;;
19971;SDS011;10147;16.402;102.848;2023-02-11T17:08:30;54.70;;;41.75;;
19971;SDS011;10147;16.402;102.848;2023-02-11T17:11:02;55.25;;;41.28;;
19971;SDS011;10147;16.402;102.848;2023-02-11T17:13:32;53.78;;;43.40;;
19971;SDS011;10147;16.402;102.848;2023-02-11T17:16:04;56.95;;;43.78;;
19971;SDS011;10147;16.402;102.848;2023-02-11T17:18:35;61.25;;;44.78;;
19971;SDS011;10147;16.402;102.848;2023-02-11T17:21:05;63.95;;;45.40;;
19971;SDS011;10147;16.402;102.848;2023-02-11T17:23:36;69.93;;;47.30;;